Time;durP1;ratioP1;P1;durP2;ratioP2;P2;SDS_P1;SDS_P2;PMS_P1;PMS_P2;Temp;Humidity;BMP_temperature;BMP_pressure;BME280_temperature;BME280_humidity;BME280_pressure;Samples;Min_cycle;Max_cycle;Signal;HPM_P1;HPM_P2
2020/12/10 00:01:04;;;;;;;29.80;15.27;;;-0.10;99.90;;;;;;5074633;28;20668;-71
2020/12/10 00:03:30;;;;;;;27.10;15.30;;;-0.20;99.90;;;;;;5075380;28;20205;-70
2020/12/10 00:05:57;;;;;;;26.87;14.93;;;-0.20;99.90;;;;;;5074663;28;20365;-70
2020/12/10 00:08:23;;;;;;;28.53;15.30;;;-0.20;99.90;;;;;;5068800;28;20236;-69
2020/12/10 00:10:50;;;;;;;27.50;14.33;;;-0.20;99.90;;;;;;5056284;28;20214;-71
2020/12/10 00:13:16;;;;;;;27.20;14.60;;;-0.20;99.90;;;;;;5080151;28;20217;-70
2020/12/10 00:15:42;;;;;;;29.57;14.77;;;-0.20;99.90;;;;;;5077312;28;20317;-69
2020/12/10 00:18:10;;;;;;;26.70;14.57;;;-0.20;99.90;;;;;;5074482;28;20240;-69
2020/12/10 00:20:36;;;;;;;21.60;13.13;;;-0.30;99.90;;;;;;5074313;28;20543;-69
2020/12/10 00:23:02;;;;;;;21.77;11.37;;;-0.30;99.90;;;;;;5074611;28;20202;-70
2020/12/10 00:25:29;;;;;;;21.10;11.43;;;-0.30;99.90;;;;;;5074234;28;20210;-68
2020/12/10 00:27:55;;;;;;;23.10;11.90;;;-0.20;99.90;;;;;;5074141;28;20716;-69
2020/12/10 00:30:22;;;;;;;20.87;11.63;;;-0.40;99.90;;;;;;5072713;28;20209;-69
2020/12/10 00:32:48;;;;;;;21.17;11.43;;;-0.40;99.90;;;;;;5073854;28;20300;-70
2020/12/10 00:35:15;;;;;;;23.47;12.73;;;-0.40;99.90;;;;;;5073871;28;20221;-70
2020/12/10 00:37:41;;;;;;;20.23;10.80;;;-0.40;99.90;;;;;;5076210;28;20211;-70
2020/12/10 00:40:08;;;;;;;19.73;11.50;;;-0.50;99.90;;;;;;5074120;28;20245;-69
2020/12/10 00:42:35;;;;;;;20.63;11.87;;;-0.50;99.90;;;;;;5073548;28;20197;-69
2020/12/10 00:45:01;;;;;;;24.43;12.70;;;-0.50;99.90;;;;;;5071719;28;20197;-69
2020/12/10 00:47:30;;;;;;;24.63;12.57;;;-0.50;99.90;;;;;;5078341;28;20295;-69
2020/12/10 00:49:57;;;;;;;19.60;10.70;;;-0.50;99.90;;;;;;5073425;28;20217;-69
2020/12/10 00:52:25;;;;;;;20.50;11.67;;;-0.50;99.90;;;;;;5061116;28;20248;-70
2020/12/10 00:54:52;;;;;;;20.17;10.87;;;-0.50;99.90;;;;;;5083061;28;20308;-71
2020/12/10 00:57:18;;;;;;;15.30;9.50;;;-0.50;99.90;;;;;;5078664;28;20219;-70
2020/12/10 00:59:45;;;;;;;17.53;11.63;;;-0.50;99.90;;;;;;5073518;28;20215;-69
2020/12/10 01:02:11;;;;;;;19.73;11.27;;;-0.50;99.90;;;;;;5076456;28;20205;-70
2020/12/10 01:04:37;;;;;;;21.93;11.33;;;-0.50;99.90;;;;;;5073724;28;20644;-69
2020/12/10 01:07:04;;;;;;;21.80;11.50;;;-0.40;99.90;;;;;;5085778;28;20215;-69
2020/12/10 01:09:31;;;;;;;19.03;10.90;;;-0.40;99.90;;;;;;5076140;28;20274;-69
2020/12/10 01:11:57;;;;;;;17.43;10.43;;;-0.40;99.90;;;;;;5067099;28;20225;-70
2020/12/10 01:14:24;;;;;;;21.43;11.20;;;-0.40;99.90;;;;;;5088389;28;20695;-70
2020/12/10 01:16:50;;;;;;;22.43;11.37;;;-0.30;99.90;;;;;;5074182;28;20709;-68
2020/12/10 01:19:17;;;;;;;19.03;9.80;;;-0.30;99.90;;;;;;5062508;28;20643;-70
2020/12/10 01:21:43;;;;;;;18.77;10.03;;;-0.40;99.90;;;;;;5059245;28;20220;-70
2020/12/10 01:24:11;;;;;;;17.43;10.27;;;-0.30;99.90;;;;;;5073314;28;20744;-70
2020/12/10 01:26:39;;;;;;;17.97;10.23;;;-0.40;99.90;;;;;;5087170;28;20206;-70
2020/12/10 01:29:06;;;;;;;19.10;10.00;;;-0.40;99.90;;;;;;5073930;28;20209;-70
2020/12/10 01:31:32;;;;;;;15.10;9.17;;;-0.40;99.90;;;;;;5073052;28;20259;-70
2020/12/10 01:33:59;;;;;;;17.10;9.97;;;-0.40;99.90;;;;;;5073920;28;20225;-70
2020/12/10 01:36:27;;;;;;;13.83;8.23;;;-0.30;99.90;;;;;;5072827;28;20208;-70
2020/12/10 01:38:54;;;;;;;15.60;9.27;;;-0.30;99.90;;;;;;5073157;28;20589;-69
2020/12/10 01:41:21;;;;;;;16.47;9.97;;;-0.30;99.90;;;;;;5072842;28;20642;-69
2020/12/10 01:43:48;;;;;;;21.97;10.27;;;-0.30;99.90;;;;;;5078536;28;20690;-72
2020/12/10 01:46:14;;;;;;;18.63;10.53;;;-0.30;99.90;;;;;;5077921;28;20295;-70
2020/12/10 01:48:43;;;;;;;16.33;9.33;;;-0.30;99.90;;;;;;5085006;28;20201;-70
2020/12/10 01:51:11;;;;;;;14.00;8.70;;;-0.30;99.90;;;;;;5072972;28;20209;-70
2020/12/10 01:53:38;;;;;;;20.00;9.07;;;-0.30;99.90;;;;;;5073353;28;20213;-70
2020/12/10 01:56:04;;;;;;;22.30;9.57;;;-0.30;99.90;;;;;;5072997;28;20207;-70
2020/12/10 01:58:30;;;;;;;14.70;8.53;;;-0.30;99.90;;;;;;5073375;28;20296;-70
2020/12/10 02:00:57;;;;;;;17.80;10.07;;;-0.30;99.90;;;;;;5075966;28;20205;-71
2020/12/10 02:03:24;;;;;;;18.37;9.40;;;-0.30;99.90;;;;;;5084639;28;20299;-71
2020/12/10 02:05:50;;;;;;;16.73;8.90;;;-0.30;99.90;;;;;;5075688;28;20642;-72
2020/12/10 02:08:17;;;;;;;12.90;8.40;;;-0.30;99.90;;;;;;5066607;28;20207;-71
2020/12/10 02:10:43;;;;;;;15.20;8.90;;;-0.20;99.90;;;;;;5079932;28;20205;-71
2020/12/10 02:13:10;;;;;;;18.70;9.47;;;-0.20;99.90;;;;;;5079583;28;20220;-70
2020/12/10 02:15:36;;;;;;;15.13;8.37;;;-0.30;99.90;;;;;;5080548;28;20231;-70
2020/12/10 02:18:04;;;;;;;14.53;8.47;;;-0.30;99.90;;;;;;5090048;28;20229;-71
2020/12/10 02:20:31;;;;;;;19.20;9.43;;;-0.30;99.90;;;;;;5090370;28;20207;-71
2020/12/10 02:23:02;;;;;;;16.43;8.10;;;-0.20;99.90;;;;;;5092543;28;20577;-70
2020/12/10 02:25:30;;;;;;;16.33;9.47;;;-0.30;99.90;;;;;;5072685;28;20641;-71
2020/12/10 02:27:58;;;;;;;13.67;9.03;;;-0.30;99.90;;;;;;5093185;28;20204;-71
2020/12/10 02:30:25;;;;;;;14.23;8.87;;;-0.30;99.90;;;;;;5071067;28;20574;-71
2020/12/10 02:32:56;;;;;;;14.17;8.60;;;-0.20;99.90;;;;;;5088365;28;20211;-70
2020/12/10 02:35:26;;;;;;;15.73;9.03;;;-0.20;99.90;;;;;;5090577;28;20301;-72
2020/12/10 02:37:53;;;;;;;16.40;9.00;;;-0.20;99.90;;;;;;5094558;28;20205;-71
2020/12/10 02:40:20;;;;;;;16.27;9.33;;;-0.20;99.90;;;;;;5094644;28;20255;-70
2020/12/10 02:42:47;;;;;;;17.20;9.00;;;-0.20;99.90;;;;;;5066857;28;20223;-70
2020/12/10 02:45:13;;;;;;;15.47;9.17;;;-0.10;99.90;;;;;;5076196;28;20323;-70
2020/12/10 02:47:40;;;;;;;12.67;7.80;;;-0.20;99.90;;;;;;5094775;28;20204;-71
2020/12/10 02:50:06;;;;;;;14.40;9.00;;;-0.20;99.90;;;;;;5080387;28;20299;-70
2020/12/10 02:52:32;;;;;;;18.07;9.80;;;-0.20;99.90;;;;;;5075589;28;20661;-71
2020/12/10 02:54:59;;;;;;;15.93;9.87;;;-0.20;99.90;;;;;;5084375;28;20235;-71
2020/12/10 02:57:26;;;;;;;17.27;10.27;;;-0.20;99.90;;;;;;5076606;28;20292;-71
2020/12/10 02:59:52;;;;;;;17.00;10.03;;;-0.20;99.90;;;;;;5075427;28;20206;-72
2020/12/10 03:02:19;;;;;;;22.43;10.17;;;-0.30;99.90;;;;;;5068544;28;20641;-70
2020/12/10 03:04:45;;;;;;;19.17;10.40;;;-0.30;99.90;;;;;;5078988;28;20203;-70
2020/12/10 03:07:11;;;;;;;18.27;9.70;;;-0.30;99.90;;;;;;5080477;28;20303;-70
2020/12/10 03:09:38;;;;;;;18.47;11.27;;;-0.20;99.90;;;;;;5077927;28;20211;-71
2020/12/10 03:12:04;;;;;;;16.93;9.60;;;-0.20;99.90;;;;;;5084800;28;20588;-69
2020/12/10 03:14:31;;;;;;;15.30;9.97;;;-0.20;99.90;;;;;;5085677;28;20224;-72
2020/12/10 03:16:57;;;;;;;20.80;11.20;;;-0.20;99.90;;;;;;5074919;28;20613;-71
2020/12/10 03:19:24;;;;;;;22.07;11.07;;;-0.20;99.90;;;;;;5086728;28;20201;-70
2020/12/10 03:21:51;;;;;;;19.40;10.70;;;-0.20;99.90;;;;;;5074842;28;20664;-72
2020/12/10 03:24:17;;;;;;;21.03;11.20;;;-0.20;99.90;;;;;;5079959;28;20208;-71
2020/12/10 03:26:44;;;;;;;21.33;11.47;;;-0.20;99.90;;;;;;5079215;28;20274;-71
2020/12/10 03:29:10;;;;;;;24.70;11.00;;;-0.30;99.90;;;;;;5080986;28;20230;-71
2020/12/10 03:31:37;;;;;;;25.90;12.47;;;-0.30;99.90;;;;;;5081949;28;20290;-71
2020/12/10 03:34:04;;;;;;;22.43;12.80;;;-0.30;99.90;;;;;;5088782;28;20211;-71
2020/12/10 03:36:45;;;;;;;23.77;11.63;;;-0.40;99.90;;;;;;5078437;28;20213;-70
2020/12/10 03:39:11;;;;;;;22.77;12.17;;;-0.30;99.90;;;;;;5065960;28;20388;-71
2020/12/10 03:41:37;;;;;;;26.20;12.90;;;-0.40;99.90;;;;;;5068494;28;20588;-71
2020/12/10 03:44:04;;;;;;;25.03;12.87;;;-0.40;99.90;;;;;;5079324;28;20232;-71
2020/12/10 03:46:30;;;;;;;22.27;11.73;;;-0.40;99.90;;;;;;5081017;28;20638;-70
2020/12/10 03:48:57;;;;;;;22.87;12.67;;;-0.40;99.90;;;;;;5082263;28;20287;-71
2020/12/10 03:51:24;;;;;;;25.57;12.33;;;-0.40;99.90;;;;;;5082807;28;20209;-70
2020/12/10 03:53:50;;;;;;;23.57;11.60;;;-0.30;99.90;;;;;;5075853;28;20721;-72
2020/12/10 03:56:16;;;;;;;23.37;11.70;;;-0.30;99.90;;;;;;5095200;28;20234;-71
2020/12/10 03:58:43;;;;;;;25.33;13.17;;;-0.30;99.90;;;;;;5075228;28;20212;-71
2020/12/10 04:01:09;;;;;;;26.93;13.07;;;-0.30;99.90;;;;;;5074612;28;20209;-71
2020/12/10 04:03:35;;;;;;;28.37;12.40;;;-0.30;99.90;;;;;;5075147;28;20665;-71
2020/12/10 04:06:03;;;;;;;24.20;11.37;;;-0.20;99.90;;;;;;5075529;28;20666;-71
2020/12/10 04:08:29;;;;;;;22.40;11.23;;;-0.20;99.90;;;;;;5075374;28;20231;-72
2020/12/10 04:10:55;;;;;;;26.60;12.03;;;-0.20;99.90;;;;;;5074818;28;20300;-71
2020/12/10 04:13:21;;;;;;;24.70;11.87;;;-0.30;99.90;;;;;;5070785;28;20203;-71
2020/12/10 04:15:48;;;;;;;20.70;11.53;;;-0.30;99.90;;;;;;5078379;28;20267;-71
2020/12/10 04:18:14;;;;;;;23.30;11.77;;;-0.30;99.90;;;;;;5080005;28;20282;-71
2020/12/10 04:20:40;;;;;;;23.53;11.27;;;-0.30;99.90;;;;;;5083494;28;20209;-71
2020/12/10 04:23:08;;;;;;;26.57;12.10;;;-0.30;99.90;;;;;;5059973;28;20561;-71
2020/12/10 04:25:34;;;;;;;26.33;12.17;;;-0.40;99.90;;;;;;5084669;28;20208;-71
2020/12/10 04:28:00;;;;;;;26.33;13.67;;;-0.40;99.90;;;;;;5078645;28;20288;-71
2020/12/10 04:30:27;;;;;;;19.87;10.63;;;-0.40;99.90;;;;;;5073985;28;20284;-71
2020/12/10 04:32:53;;;;;;;25.13;11.63;;;-0.30;99.90;;;;;;5074482;28;20320;-71
2020/12/10 04:35:19;;;;;;;29.10;13.43;;;-0.30;99.90;;;;;;5080521;28;20216;-70
2020/12/10 04:37:46;;;;;;;23.07;12.50;;;-0.30;99.90;;;;;;5082208;28;20205;-70
2020/12/10 04:40:13;;;;;;;28.90;12.73;;;-0.30;99.90;;;;;;5073788;28;20255;-71
2020/12/10 04:42:41;;;;;;;21.40;11.57;;;-0.30;99.90;;;;;;5070804;28;20221;-70
2020/12/10 04:45:08;;;;;;;21.77;11.60;;;-0.30;99.90;;;;;;5062104;28;20302;-70
2020/12/10 04:47:35;;;;;;;25.50;11.97;;;-0.30;99.90;;;;;;5080002;28;20701;-71
2020/12/10 04:50:04;;;;;;;21.57;11.17;;;-0.30;99.90;;;;;;5080289;28;20274;-71
2020/12/10 04:52:32;;;;;;;22.30;11.00;;;-0.30;99.90;;;;;;5076642;28;20208;-71
2020/12/10 04:54:59;;;;;;;30.13;11.47;;;-0.30;99.90;;;;;;5081266;28;20227;-71
2020/12/10 04:57:30;;;;;;;20.10;11.20;;;-0.30;99.90;;;;;;5073810;28;20216;-70
2020/12/10 04:59:56;;;;;;;22.03;12.00;;;-0.40;99.90;;;;;;5065002;28;20202;-71
2020/12/10 05:02:23;;;;;;;22.17;12.10;;;-0.40;99.90;;;;;;5067842;28;20219;-71
2020/12/10 05:04:49;;;;;;;24.53;12.53;;;-0.30;99.90;;;;;;5071192;28;20568;-70
2020/12/10 05:07:16;;;;;;;24.93;12.43;;;-0.30;99.90;;;;;;5074235;28;20219;-70
2020/12/10 05:09:56;;;;;;;26.97;11.63;;;-0.30;99.90;;;;;;5073990;28;20201;-70
2020/12/10 05:12:23;;;;;;;24.33;12.43;;;-0.30;99.90;;;;;;5063214;28;20232;-71
2020/12/10 05:14:50;;;;;;;25.13;12.93;;;-0.30;99.90;;;;;;5073039;28;20240;-71
2020/12/10 05:17:16;;;;;;;27.43;13.07;;;-0.30;99.90;;;;;;5073844;28;20288;-71
2020/12/10 05:19:43;;;;;;;23.40;12.30;;;-0.30;99.90;;;;;;5073855;28;20584;-70
2020/12/10 05:22:10;;;;;;;23.60;12.40;;;-0.30;99.90;;;;;;5074185;28;20205;-71
2020/12/10 05:24:37;;;;;;;26.20;13.17;;;-0.20;99.90;;;;;;5073867;28;20673;-71
2020/12/10 05:27:20;;;;;;;25.53;11.27;;;-0.20;99.90;;;;;;5073264;28;20205;-70
2020/12/10 05:29:47;;;;;;;28.07;14.80;;;-0.20;99.90;;;;;;5073715;28;20211;-71
2020/12/10 05:32:43;;;;;;;25.77;11.93;;;-0.30;99.90;;;;;;5083659;28;20211;-69
2020/12/10 05:35:27;;;;;;;27.50;13.20;;;-0.30;99.90;;;;;;5077638;28;20218;-79
2020/12/10 05:37:54;;;;;;;25.97;12.37;;;-0.30;99.90;;;;;;5073809;28;20263;-72
2020/12/10 05:40:21;;;;;;;31.93;13.47;;;-0.40;99.90;;;;;;5080060;28;20258;-70
2020/12/10 05:42:49;;;;;;;27.53;13.50;;;-0.50;99.90;;;;;;5066914;28;20656;-70
2020/12/10 05:45:17;;;;;;;26.07;12.57;;;-0.50;99.90;;;;;;5074347;28;20560;-73
2020/12/10 05:47:46;;;;;;;27.93;13.40;;;-0.50;99.90;;;;;;5081407;28;20228;-70
2020/12/10 05:50:14;;;;;;;28.27;12.80;;;-0.50;99.90;;;;;;5080626;28;20576;-71
2020/12/10 05:52:44;;;;;;;25.93;13.33;;;-0.50;99.90;;;;;;5062070;28;20201;-71
2020/12/10 05:55:10;;;;;;;26.80;12.93;;;-0.50;99.90;;;;;;5086122;28;20224;-71
2020/12/10 05:57:41;;;;;;;35.43;14.97;;;-0.60;99.90;;;;;;5075437;28;20201;-71
2020/12/10 06:00:08;;;;;;;29.43;14.27;;;-0.60;99.90;;;;;;5074214;28;20272;-74
2020/12/10 06:02:36;;;;;;;25.97;13.77;;;-0.60;99.90;;;;;;5071393;28;20205;-71
2020/12/10 06:05:04;;;;;;;29.63;14.23;;;-0.60;99.90;;;;;;5074711;28;20292;-76
2020/12/10 06:07:30;;;;;;;29.60;13.90;;;-0.60;99.90;;;;;;5081936;28;20201;-80
2020/12/10 06:10:01;;;;;;;31.37;14.40;;;-0.60;99.90;;;;;;5086627;28;20205;-81
2020/12/10 06:12:30;;;;;;;28.93;13.97;;;-0.60;99.90;;;;;;5083992;28;20228;-78
2020/12/10 06:14:59;;;;;;;24.37;12.67;;;-0.50;99.90;;;;;;5081130;28;20697;-76
2020/12/10 06:17:25;;;;;;;31.23;14.77;;;-0.50;99.90;;;;;;5071296;28;20291;-77
2020/12/10 06:19:52;;;;;;;22.50;12.33;;;-0.50;99.90;;;;;;5077085;28;20197;-75
2020/12/10 06:22:24;;;;;;;30.13;14.73;;;-0.40;99.90;;;;;;5074753;28;20213;-74
2020/12/10 06:24:51;;;;;;;28.90;13.30;;;-0.50;99.90;;;;;;5081106;28;20205;-74
2020/12/10 06:27:28;;;;;;;24.90;13.57;;;-0.50;99.90;;;;;;5078414;28;20685;-72
2020/12/10 06:30:15;;;;;;;28.23;13.00;;;-0.50;99.90;;;;;;5064557;28;20247;-71
2020/12/10 06:32:44;;;;;;;26.70;12.80;;;-0.50;99.90;;;;;;5078509;28;20675;-71
2020/12/10 06:35:29;;;;;;;25.47;14.07;;;-0.50;99.90;;;;;;5078419;28;20266;-71
2020/12/10 06:37:56;;;;;;;25.10;12.93;;;-0.50;99.90;;;;;;5080962;28;20236;-71
2020/12/10 06:40:35;;;;;;;29.13;13.50;;;-0.50;99.90;;;;;;5072034;28;20240;-71
2020/12/10 06:43:02;;;;;;;26.30;13.20;;;-0.50;99.90;;;;;;5079853;28;20287;-72
2020/12/10 06:45:32;;;;;;;27.73;12.60;;;-0.50;99.90;;;;;;5075428;28;20721;-72
2020/12/10 06:47:59;;;;;;;22.23;12.07;;;-0.50;99.90;;;;;;5086230;28;20230;-71
2020/12/10 06:50:27;;;;;;;23.90;12.50;;;-0.40;99.90;;;;;;5086162;28;20650;-71
2020/12/10 06:53:16;;;;;;;25.37;12.60;;;-0.40;99.90;;;;;;5084563;28;20315;-72
2020/12/10 06:56:07;;;;;;;23.73;12.70;;;-0.40;99.90;;;;;;5084933;28;20232;-72
2020/12/10 06:58:58;;;;;;;24.67;10.93;;;-0.40;99.90;;;;;;5083871;28;20250;-70
2020/12/10 07:01:36;;;;;;;29.77;13.73;;;-0.40;99.90;;;;;;5075078;28;20206;-72
2020/12/10 07:04:15;;;;;;;25.37;12.27;;;-0.40;99.90;;;;;;5079862;28;20201;-72
2020/12/10 07:06:41;;;;;;;22.37;12.00;;;-0.30;99.90;;;;;;5076004;28;20197;-73
2020/12/10 07:09:13;;;;;;;23.60;12.37;;;-0.40;99.90;;;;;;5075639;28;20220;-72
2020/12/10 07:11:41;;;;;;;23.03;11.43;;;-0.40;99.90;;;;;;5078634;28;20220;-72
2020/12/10 07:14:23;;;;;;;23.43;13.23;;;-0.40;99.90;;;;;;5088458;28;20205;-72
2020/12/10 07:16:49;;;;;;;29.30;12.93;;;-0.30;99.90;;;;;;5075809;28;20236;-72
2020/12/10 07:19:16;;;;;;;31.67;12.00;;;-0.40;99.90;;;;;;5081723;28;20227;-72
2020/12/10 07:21:42;;;;;;;25.30;13.27;;;-0.40;99.90;;;;;;5082080;28;20735;-73
2020/12/10 07:24:10;;;;;;;24.90;12.33;;;-0.40;99.90;;;;;;5085554;28;20653;-74
2020/12/10 07:26:37;;;;;;;24.43;13.20;;;-0.40;99.90;;;;;;5083595;28;20276;-74
2020/12/10 07:29:04;;;;;;;21.33;11.97;;;-0.40;99.90;;;;;;5081762;28;20219;-71
2020/12/10 07:31:30;;;;;;;28.80;12.83;;;-0.40;99.90;;;;;;5077035;28;20233;-73
2020/12/10 07:33:58;;;;;;;24.33;13.13;;;-0.50;99.90;;;;;;5081464;28;20200;-72
2020/12/10 07:36:24;;;;;;;20.20;10.80;;;-0.40;99.90;;;;;;5081449;28;20251;-73
2020/12/10 07:38:51;;;;;;;24.50;12.47;;;-0.40;99.90;;;;;;5068704;28;20722;-72
2020/12/10 07:41:18;;;;;;;22.30;12.13;;;-0.40;99.90;;;;;;5078064;28;20633;-71
2020/12/10 07:43:46;;;;;;;23.20;12.77;;;-0.40;99.90;;;;;;5081301;28;20240;-74
2020/12/10 07:46:13;;;;;;;22.97;12.63;;;-0.40;99.90;;;;;;5082070;28;20215;-72
2020/12/10 07:48:40;;;;;;;23.60;11.77;;;-0.40;99.90;;;;;;5078505;28;20205;-73
2020/12/10 07:51:06;;;;;;;23.70;12.83;;;-0.30;99.90;;;;;;5085883;28;20204;-72
2020/12/10 07:53:33;;;;;;;23.87;12.77;;;-0.40;99.90;;;;;;5077006;28;20210;-73
2020/12/10 07:56:02;;;;;;;22.43;11.17;;;-0.30;99.90;;;;;;5075810;28;20724;-73
2020/12/10 07:58:49;;;;;;;28.07;12.60;;;-0.30;99.90;;;;;;5082437;28;20202;-72
2020/12/10 08:01:15;;;;;;;21.93;10.93;;;-0.40;99.90;;;;;;5069460;28;20210;-71
2020/12/10 08:03:50;;;;;;;19.27;11.10;;;-0.30;99.90;;;;;;5078286;28;20299;-72
2020/12/10 08:06:17;;;;;;;17.70;10.57;;;-0.30;99.90;;;;;;5090448;28;20613;-71
2020/12/10 08:08:46;;;;;;;20.10;12.07;;;-0.30;99.90;;;;;;5086517;28;20311;-75
2020/12/10 08:11:16;;;;;;;26.30;11.50;;;-0.30;99.90;;;;;;5084039;28;20613;-74
2020/12/10 08:14:01;;;;;;;20.90;11.07;;;-0.30;99.90;;;;;;5073999;28;20642;-78
2020/12/10 08:16:45;;;;;;;15.33;8.23;;;-0.30;99.90;;;;;;5069112;28;20312;-73
2020/12/10 08:19:22;;;;;;;20.17;10.80;;;-0.30;99.90;;;;;;5076361;28;20201;-73
2020/12/10 08:21:51;;;;;;;19.13;10.40;;;-0.40;99.90;;;;;;5064151;28;20272;-74
2020/12/10 08:24:40;;;;;;;25.47;8.63;;;-0.40;99.90;;;;;;5077639;28;20295;-79
2020/12/10 08:27:07;;;;;;;22.83;11.60;;;-0.40;99.90;;;;;;5060414;28;20666;-73
2020/12/10 08:29:34;;;;;;;17.43;9.67;;;-0.40;99.90;;;;;;5074972;28;20205;-73
2020/12/10 08:32:11;;;;;;;15.97;8.83;;;-0.40;99.90;;;;;;5062324;28;20233;-73
2020/12/10 08:34:38;;;;;;;19.23;10.60;;;-0.40;99.90;;;;;;5075846;28;20205;-72
2020/12/10 08:37:05;;;;;;;21.77;10.73;;;-0.30;99.90;;;;;;5075720;28;20232;-74
2020/12/10 08:39:33;;;;;;;14.50;8.67;;;-0.30;99.90;;;;;;5075518;28;20257;-74
2020/12/10 08:41:59;;;;;;;17.77;10.00;;;-0.20;99.90;;;;;;5073900;28;20267;-73
2020/12/10 08:44:26;;;;;;;17.67;8.33;;;-0.30;99.90;;;;;;5074783;28;20292;-72
2020/12/10 08:47:01;;;;;;;17.87;9.90;;;-0.20;99.90;;;;;;5076056;28;20251;-74
2020/12/10 08:49:27;;;;;;;18.30;9.63;;;-0.20;99.90;;;;;;5074164;28;20201;-72
2020/12/10 08:51:53;;;;;;;18.47;10.93;;;-0.20;99.90;;;;;;5067411;28;20197;-73
2020/12/10 08:54:20;;;;;;;19.43;9.40;;;-0.20;99.90;;;;;;5072238;28;20228;-72
2020/12/10 08:56:46;;;;;;;15.23;9.10;;;-0.20;99.90;;;;;;5083194;28;20233;-74
2020/12/10 08:59:12;;;;;;;16.63;9.73;;;-0.10;99.90;;;;;;5075853;28;20229;-72
2020/12/10 09:01:53;;;;;;;15.53;8.93;;;-0.10;99.90;;;;;;5086221;28;20213;-73
2020/12/10 09:04:20;;;;;;;15.93;10.10;;;-0.10;99.90;;;;;;5073534;28;20221;-73
2020/12/10 09:06:47;;;;;;;17.83;9.53;;;-0.10;99.90;;;;;;5069381;28;20205;-74
2020/12/10 09:09:14;;;;;;;15.93;8.77;;;-0.10;99.90;;;;;;5073987;28;20694;-75
2020/12/10 09:11:45;;;;;;;18.17;9.47;;;-0.10;99.90;;;;;;5070162;28;20316;-74
2020/12/10 09:14:11;;;;;;;16.97;8.77;;;-0.10;99.90;;;;;;5078110;28;20653;-73
2020/12/10 09:16:37;;;;;;;17.60;9.80;;;-0.10;99.90;;;;;;5076527;28;20749;-73
2020/12/10 09:19:04;;;;;;;15.63;8.90;;;0.00;99.90;;;;;;5075801;28;20213;-74
2020/12/10 09:21:34;;;;;;;16.33;9.60;;;-0.10;99.90;;;;;;5077195;28;20225;-74
2020/12/10 09:24:01;;;;;;;15.43;8.87;;;0.00;99.90;;;;;;5072775;28;20556;-73
2020/12/10 09:26:27;;;;;;;17.93;9.87;;;0.00;99.90;;;;;;5082439;28;20213;-74
2020/12/10 09:28:54;;;;;;;15.10;9.20;;;0.00;99.90;;;;;;5077602;28;20216;-74
2020/12/10 09:31:20;;;;;;;14.23;9.17;;;0.10;99.90;;;;;;5077588;28;20215;-75
2020/12/10 09:33:47;;;;;;;18.70;9.50;;;0.10;99.90;;;;;;5074673;28;20288;-73
2020/12/10 09:36:13;;;;;;;18.03;9.67;;;0.20;99.90;;;;;;5083563;28;20220;-72
2020/12/10 09:38:40;;;;;;;18.23;9.83;;;0.20;99.90;;;;;;5083456;28;20250;-73
2020/12/10 09:41:07;;;;;;;16.53;10.20;;;0.20;99.90;;;;;;5075973;28;20651;-74
2020/12/10 09:43:34;;;;;;;17.60;9.50;;;0.20;99.90;;;;;;5071313;28;20209;-77
2020/12/10 09:46:02;;;;;;;15.43;9.57;;;0.20;99.90;;;;;;5089675;28;20243;-73
2020/12/10 09:48:29;;;;;;;19.43;10.23;;;0.10;99.90;;;;;;5083791;28;20691;-75
2020/12/10 09:50:55;;;;;;;17.50;10.47;;;0.10;99.90;;;;;;5087888;28;20633;-73
2020/12/10 09:53:25;;;;;;;16.47;10.73;;;0.00;99.90;;;;;;5080341;28;20684;-72
2020/12/10 09:58:35;;;;;;;20.57;10.47;;;-0.10;99.90;;;;;;5071582;28;20197;-71
2020/12/10 10:01:02;;;;;;;20.50;11.20;;;-0.20;99.90;;;;;;5072461;28;20673;-72
2020/12/10 10:03:28;;;;;;;23.27;11.50;;;-0.20;99.90;;;;;;5062953;28;20218;-71
2020/12/10 10:05:55;;;;;;;18.27;10.80;;;-0.10;99.90;;;;;;5057810;28;20216;-72
2020/12/10 10:08:24;;;;;;;23.37;11.83;;;-0.20;99.90;;;;;;5060600;28;20580;-71
2020/12/10 10:10:54;;;;;;;22.27;11.83;;;-0.20;99.90;;;;;;5071987;28;20547;-72
2020/12/10 10:13:20;;;;;;;23.90;12.10;;;-0.20;99.90;;;;;;5072924;28;20237;-72
2020/12/10 10:15:47;;;;;;;23.67;11.93;;;-0.30;99.90;;;;;;5072006;28;20270;-72
2020/12/10 10:18:15;;;;;;;30.33;12.67;;;-0.10;99.90;;;;;;5085921;28;20795;-71
2020/12/10 10:20:41;;;;;;;24.37;12.37;;;-0.30;99.90;;;;;;5081763;28;20213;-72
2020/12/10 10:23:08;;;;;;;24.27;13.47;;;-0.30;99.90;;;;;;5088160;28;20240;-71
2020/12/10 10:25:34;;;;;;;29.17;14.17;;;-0.20;99.90;;;;;;5077620;28;20205;-71
2020/12/10 10:28:01;;;;;;;29.40;14.23;;;-0.20;99.90;;;;;;5087067;28;20273;-72
2020/12/10 10:30:28;;;;;;;28.87;14.10;;;-0.20;99.90;;;;;;5074887;28;20207;-71
2020/12/10 10:32:54;;;;;;;30.20;15.30;;;-0.20;99.90;;;;;;5083979;28;20244;-71
2020/12/10 10:35:23;;;;;;;32.00;13.80;;;-0.10;99.90;;;;;;5070023;28;20306;-73
2020/12/10 10:37:50;;;;;;;29.03;14.90;;;-0.20;99.90;;;;;;5081670;28;20511;-73
2020/12/10 10:40:17;;;;;;;31.87;15.53;;;-0.30;99.90;;;;;;5086329;28;20260;-70
2020/12/10 10:42:44;;;;;;;31.87;14.70;;;-0.30;99.90;;;;;;5077856;28;20213;-72
2020/12/10 10:45:11;;;;;;;33.90;16.07;;;-0.30;99.90;;;;;;5078158;28;20219;-72
2020/12/10 10:47:38;;;;;;;29.03;14.87;;;-0.20;99.90;;;;;;5077486;28;20205;-70
2020/12/10 10:50:05;;;;;;;32.00;15.83;;;-0.20;99.90;;;;;;5085228;28;20204;-71
2020/12/10 10:52:32;;;;;;;28.27;13.90;;;-0.20;99.90;;;;;;5075660;28;20296;-72
2020/12/10 10:54:59;;;;;;;32.10;13.90;;;-0.20;99.90;;;;;;5081973;28;20256;-72
2020/12/10 10:57:25;;;;;;;35.97;14.97;;;-0.20;99.90;;;;;;5075737;28;20209;-72
2020/12/10 10:59:51;;;;;;;31.03;15.83;;;-0.20;99.90;;;;;;5075444;28;20680;-72
2020/12/10 11:02:19;;;;;;;31.57;15.67;;;-0.30;99.90;;;;;;5075697;28;20209;-72
2020/12/10 11:04:45;;;;;;;30.80;14.43;;;-0.30;99.90;;;;;;5073135;28;20284;-73
2020/12/10 11:07:12;;;;;;;26.07;13.73;;;-0.30;99.90;;;;;;5072769;28;20578;-72
2020/12/10 11:09:38;;;;;;;29.80;14.77;;;-0.30;99.90;;;;;;5070833;28;20297;-73
2020/12/10 11:12:05;;;;;;;26.10;13.33;;;-0.30;99.90;;;;;;5080979;28;20251;-76
2020/12/10 11:14:31;;;;;;;31.83;13.83;;;-0.30;99.90;;;;;;5089956;28;20219;-76
2020/12/10 11:16:57;;;;;;;33.23;14.97;;;-0.30;99.90;;;;;;5082446;28;20316;-73
2020/12/10 11:19:25;;;;;;;31.33;15.10;;;-0.20;99.90;;;;;;5067847;28;20286;-72
2020/12/10 11:21:52;;;;;;;32.17;14.77;;;-0.20;99.90;;;;;;5076298;28;20307;-73
2020/12/10 11:24:18;;;;;;;30.90;14.37;;;-0.20;99.90;;;;;;5075946;28;20625;-73
2020/12/10 11:26:45;;;;;;;34.90;15.40;;;-0.20;99.90;;;;;;5072066;28;20558;-72
2020/12/10 11:29:11;;;;;;;29.73;15.07;;;-0.20;99.90;;;;;;5074135;28;20271;-73
2020/12/10 11:31:38;;;;;;;38.73;15.53;;;-0.10;99.90;;;;;;5075330;28;20240;-72
2020/12/10 11:34:04;;;;;;;31.83;15.03;;;-0.10;99.90;;;;;;5077471;28;20217;-73
2020/12/10 11:36:31;;;;;;;34.53;17.07;;;-0.10;99.90;;;;;;5072226;28;20604;-73
2020/12/10 11:38:58;;;;;;;33.17;15.37;;;-0.10;99.90;;;;;;5078010;28;20671;-74
2020/12/10 11:41:24;;;;;;;41.07;16.00;;;0.00;99.90;;;;;;5079144;28;20209;-73
2020/12/10 11:43:52;;;;;;;31.93;15.03;;;0.00;99.90;;;;;;5082222;28;20208;-73
2020/12/10 11:46:18;;;;;;;36.70;16.03;;;0.00;99.90;;;;;;5087985;28;20564;-73
2020/12/10 11:48:44;;;;;;;32.30;16.13;;;0.00;99.90;;;;;;5087120;28;20292;-73
2020/12/10 11:51:11;;;;;;;34.43;16.50;;;-0.10;99.90;;;;;;5085657;28;20204;-74
2020/12/10 11:53:39;;;;;;;35.07;16.33;;;-0.10;99.90;;;;;;5082778;28;20209;-73
2020/12/10 11:56:06;;;;;;;33.90;14.90;;;-0.10;99.90;;;;;;5087324;28;20259;-73
2020/12/10 11:58:32;;;;;;;38.27;15.73;;;-0.10;99.90;;;;;;5076720;28;20197;-72
2020/12/10 12:00:59;;;;;;;37.43;16.97;;;-0.20;99.90;;;;;;5076319;28;20293;-73
2020/12/10 12:03:26;;;;;;;40.27;18.07;;;-0.10;99.90;;;;;;5078461;28;20292;-73
2020/12/10 12:05:52;;;;;;;39.73;16.80;;;-0.10;99.90;;;;;;5074558;28;20197;-78
2020/12/10 12:08:25;;;;;;;42.03;17.00;;;-0.10;99.90;;;;;;5087178;28;20291;-78
2020/12/10 12:10:55;;;;;;;33.57;16.77;;;-0.10;99.90;;;;;;5079229;28;20196;-77
2020/12/10 12:13:21;;;;;;;38.53;17.10;;;-0.10;99.90;;;;;;5076602;28;20326;-76
2020/12/10 12:15:50;;;;;;;41.03;18.10;;;-0.10;99.90;;;;;;5076021;28;20328;-77
2020/12/10 12:18:20;;;;;;;39.80;17.37;;;-0.10;99.90;;;;;;5087393;28;20247;-77
2020/12/10 12:20:47;;;;;;;40.60;19.00;;;-0.10;99.90;;;;;;5081776;28;20702;-77
2020/12/10 12:23:13;;;;;;;40.23;17.87;;;0.00;99.90;;;;;;5083139;28;21224;-77
2020/12/10 12:25:40;;;;;;;38.80;16.97;;;0.00;99.90;;;;;;5084250;28;20213;-77
2020/12/10 12:28:07;;;;;;;33.53;16.03;;;0.10;99.90;;;;;;5075790;28;20300;-77
2020/12/10 12:30:34;;;;;;;37.93;16.90;;;0.00;99.90;;;;;;5080518;28;20831;-77
2020/12/10 12:33:00;;;;;;;36.10;16.47;;;0.00;99.90;;;;;;5078436;28;20205;-76
2020/12/10 12:35:27;;;;;;;38.87;16.67;;;0.00;99.90;;;;;;5073108;28;20260;-77
2020/12/10 12:37:53;;;;;;;33.43;15.33;;;0.00;99.90;;;;;;5076916;28;20217;-77